sensor_id;sensor_type;location;lat;lon;timestamp;pressure;altitude;pressure_sealevel;temperature;humidity
30935;BME280;51033;42.648;23.292;2023-05-03T00:00:13;94137.22;;;8.37;47.59
30935;BME280;51033;42.648;23.292;2023-05-03T00:02:40;94117.84;;;8.23;47.58
30935;BME280;51033;42.648;23.292;2023-05-03T00:05:09;94135.03;;;8.26;47.25
30935;BME280;51033;42.648;23.292;2023-05-03T00:07:37;94137.53;;;8.17;47.14
30935;BME280;51033;42.648;23.292;2023-05-03T00:10:03;94117.28;;;8.07;47.13
30935;BME280;51033;42.648;23.292;2023-05-03T00:12:29;94137.63;;;8.12;47.39
30935;BME280;51033;42.648;23.292;2023-05-03T00:14:54;94142.34;;;8.15;47.30
30935;BME280;51033;42.648;23.292;2023-05-03T00:17:20;94140.56;;;8.10;47.12
30935;BME280;51033;42.648;23.292;2023-05-03T00:19:46;94118.41;;;7.88;47.04
30935;BME280;51033;42.648;23.292;2023-05-03T00:22:12;94135.16;;;8.02;47.40
30935;BME280;51033;42.648;23.292;2023-05-03T00:24:37;94130.22;;;7.95;47.17
30935;BME280;51033;42.648;23.292;2023-05-03T00:27:04;94133.16;;;7.94;47.42
30935;BME280;51033;42.648;23.292;2023-05-03T00:29:29;94114.19;;;7.87;47.53
30935;BME280;51033;42.648;23.292;2023-05-03T00:31:55;94128.50;;;7.86;47.91
30935;BME280;51033;42.648;23.292;2023-05-03T00:34:20;94134.72;;;7.95;48.22
30935;BME280;51033;42.648;23.292;2023-05-03T00:36:45;94123.13;;;7.91;47.61
30935;BME280;51033;42.648;23.292;2023-05-03T00:39:11;94133.34;;;7.97;47.60
30935;BME280;51033;42.648;23.292;2023-05-03T00:41:38;94109.09;;;7.71;47.45
30935;BME280;51033;42.648;23.292;2023-05-03T00:44:03;94120.44;;;7.77;47.68
30935;BME280;51033;42.648;23.292;2023-05-03T00:46:29;94133.22;;;7.89;47.42
30935;BME280;51033;42.648;23.292;2023-05-03T00:48:54;94155.91;;;7.95;47.50
30935;BME280;51033;42.648;23.292;2023-05-03T00:51:20;94156.41;;;7.97;46.81
30935;BME280;51033;42.648;23.292;2023-05-03T00:53:46;94134.22;;;7.93;47.38
30935;BME280;51033;42.648;23.292;2023-05-03T00:56:14;94139.59;;;7.88;47.34
30935;BME280;51033;42.648;23.292;2023-05-03T00:58:43;94154.78;;;8.01;47.25
30935;BME280;51033;42.648;23.292;2023-05-03T01:01:09;94142.09;;;7.98;46.59
30935;BME280;51033;42.648;23.292;2023-05-03T01:03:36;94132.94;;;7.71;46.64
30935;BME280;51033;42.648;23.292;2023-05-03T01:09:01;94141.22;;;7.65;47.43
30935;BME280;51033;42.648;23.292;2023-05-03T01:11:36;94133.78;;;7.48;47.52
30935;BME280;51033;42.648;23.292;2023-05-03T01:17:03;94125.84;;;7.48;47.71
30935;BME280;51033;42.648;23.292;2023-05-03T01:19:35;94114.81;;;7.41;47.78
30935;BME280;51033;42.648;23.292;2023-05-03T01:25:16;94103.44;;;7.22;47.91
30935;BME280;51033;42.648;23.292;2023-05-03T01:27:42;94089.94;;;7.42;47.52
30935;BME280;51033;42.648;23.292;2023-05-03T01:30:09;94116.97;;;7.58;47.64
30935;BME280;51033;42.648;23.292;2023-05-03T01:35:43;94109.38;;;7.51;47.73
30935;BME280;51033;42.648;23.292;2023-05-03T01:38:11;94079.97;;;7.15;48.14
30935;BME280;51033;42.648;23.292;2023-05-03T01:40:49;94088.75;;;7.11;48.11
30935;BME280;51033;42.648;23.292;2023-05-03T01:43:16;94105.94;;;7.13;48.18
30935;BME280;51033;42.648;23.292;2023-05-03T01:45:42;94098.41;;;7.02;48.30
30935;BME280;51033;42.648;23.292;2023-05-03T01:48:13;94097.53;;;7.06;48.13
30935;BME280;51033;42.648;23.292;2023-05-03T01:50:38;94087.94;;;6.92;48.55
30935;BME280;51033;42.648;23.292;2023-05-03T01:53:04;94086.88;;;6.93;48.34
30935;BME280;51033;42.648;23.292;2023-05-03T01:55:29;94083.59;;;7.01;48.62
30935;BME280;51033;42.648;23.292;2023-05-03T01:57:54;94069.50;;;6.86;48.31
30935;BME280;51033;42.648;23.292;2023-05-03T02:00:20;94059.31;;;6.99;48.25
30935;BME280;51033;42.648;23.292;2023-05-03T02:02:45;94075.72;;;6.96;48.31
30935;BME280;51033;42.648;23.292;2023-05-03T02:05:12;94068.31;;;6.98;48.62
30935;BME280;51033;42.648;23.292;2023-05-03T02:07:37;94036.50;;;6.84;48.57
30935;BME280;51033;42.648;23.292;2023-05-03T02:10:06;94056.53;;;7.09;48.61
30935;BME280;51033;42.648;23.292;2023-05-03T02:12:32;94059.03;;;7.19;48.43
30935;BME280;51033;42.648;23.292;2023-05-03T02:14:57;94049.16;;;7.24;48.20
30935;BME280;51033;42.648;23.292;2023-05-03T02:17:23;94036.63;;;7.49;47.74
30935;BME280;51033;42.648;23.292;2023-05-03T02:19:53;94035.25;;;7.70;46.89
30935;BME280;51033;42.648;23.292;2023-05-03T02:22:19;94024.56;;;7.43;48.00
30935;BME280;51033;42.648;23.292;2023-05-03T02:24:45;94039.59;;;7.47;48.02
30935;BME280;51033;42.648;23.292;2023-05-03T02:27:11;94043.03;;;7.48;48.02
30935;BME280;51033;42.648;23.292;2023-05-03T02:29:36;94037.22;;;7.27;48.30
30935;BME280;51033;42.648;23.292;2023-05-03T02:32:01;94042.38;;;7.18;48.41
30935;BME280;51033;42.648;23.292;2023-05-03T02:34:30;94028.84;;;7.20;48.17
30935;BME280;51033;42.648;23.292;2023-05-03T02:36:56;94050.16;;;7.47;47.74
30935;BME280;51033;42.648;23.292;2023-05-03T02:39:21;94026.56;;;7.32;47.63
30935;BME280;51033;42.648;23.292;2023-05-03T02:41:46;94052.59;;;7.25;47.97
30935;BME280;51033;42.648;23.292;2023-05-03T02:44:12;94037.38;;;7.17;48.32
30935;BME280;51033;42.648;23.292;2023-05-03T02:46:37;94062.09;;;7.82;47.62
30935;BME280;51033;42.648;23.292;2023-05-03T02:49:02;94054.88;;;7.50;48.05
30935;BME280;51033;42.648;23.292;2023-05-03T02:51:28;94046.78;;;7.79;47.01
30935;BME280;51033;42.648;23.292;2023-05-03T02:53:53;94056.09;;;8.09;46.58
30935;BME280;51033;42.648;23.292;2023-05-03T02:56:20;94065.75;;;8.32;46.45
30935;BME280;51033;42.648;23.292;2023-05-03T02:58:45;94051.66;;;8.50;46.32
30935;BME280;51033;42.648;23.292;2023-05-03T03:01:11;94043.59;;;8.55;46.03
30935;BME280;51033;42.648;23.292;2023-05-03T03:03:36;94060.09;;;8.80;45.15
30935;BME280;51033;42.648;23.292;2023-05-03T03:06:02;94074.41;;;8.92;45.06
30935;BME280;51033;42.648;23.292;2023-05-03T03:08:27;94033.13;;;9.00;44.42
30935;BME280;51033;42.648;23.292;2023-05-03T03:10:53;94062.03;;;9.15;44.63
30935;BME280;51033;42.648;23.292;2023-05-03T03:13:18;94074.22;;;9.66;44.50
30935;BME280;51033;42.648;23.292;2023-05-03T03:15:43;94075.66;;;9.72;44.05
30935;BME280;51033;42.648;23.292;2023-05-03T03:18:09;94073.97;;;9.98;43.67
30935;BME280;51033;42.648;23.292;2023-05-03T03:20:36;94066.44;;;9.92;42.45
30935;BME280;51033;42.648;23.292;2023-05-03T03:23:01;94052.84;;;9.71;43.43
30935;BME280;51033;42.648;23.292;2023-05-03T03:25:27;94073.47;;;10.18;42.71
30935;BME280;51033;42.648;23.292;2023-05-03T03:27:52;94052.22;;;10.18;42.40
30935;BME280;51033;42.648;23.292;2023-05-03T03:30:18;94062.09;;;10.49;42.12
30935;BME280;51033;42.648;23.292;2023-05-03T03:32:43;94048.19;;;10.21;42.59
30935;BME280;51033;42.648;23.292;2023-05-03T03:35:09;94063.94;;;10.40;42.73
30935;BME280;51033;42.648;23.292;2023-05-03T03:37:34;94073.31;;;10.37;42.58
30935;BME280;51033;42.648;23.292;2023-05-03T03:40:00;94076.56;;;10.34;42.56
30935;BME280;51033;42.648;23.292;2023-05-03T03:42:25;94090.59;;;10.26;43.19
30935;BME280;51033;42.648;23.292;2023-05-03T03:44:50;94086.97;;;9.77;44.00
30935;BME280;51033;42.648;23.292;2023-05-03T03:47:16;94090.16;;;9.66;43.19
30935;BME280;51033;42.648;23.292;2023-05-03T03:49:41;94094.78;;;9.60;42.67
30935;BME280;51033;42.648;23.292;2023-05-03T03:52:07;94091.53;;;9.27;43.91
30935;BME280;51033;42.648;23.292;2023-05-03T03:54:32;94123.66;;;9.98;43.37
30935;BME280;51033;42.648;23.292;2023-05-03T03:57:01;94115.84;;;9.93;42.20
30935;BME280;51033;42.648;23.292;2023-05-03T03:59:29;94122.28;;;10.36;42.06
30935;BME280;51033;42.648;23.292;2023-05-03T04:01:54;94105.06;;;10.42;41.56
30935;BME280;51033;42.648;23.292;2023-05-03T04:04:20;94115.41;;;9.77;42.28
30935;BME280;51033;42.648;23.292;2023-05-03T04:06:45;94113.97;;;9.57;42.78
30935;BME280;51033;42.648;23.292;2023-05-03T04:09:10;94115.34;;;9.91;43.08
30935;BME280;51033;42.648;23.292;2023-05-03T04:11:36;94094.59;;;9.93;42.40
30935;BME280;51033;42.648;23.292;2023-05-03T04:14:02;94108.94;;;10.14;43.10
30935;BME280;51033;42.648;23.292;2023-05-03T04:16:28;94098.50;;;10.17;42.01
30935;BME280;51033;42.648;23.292;2023-05-03T04:18:53;94119.81;;;8.91;44.00
30935;BME280;51033;42.648;23.292;2023-05-03T04:21:19;94127.84;;;8.72;45.34
30935;BME280;51033;42.648;23.292;2023-05-03T04:23:44;94135.44;;;8.33;45.88
30935;BME280;51033;42.648;23.292;2023-05-03T04:26:10;94138.16;;;8.28;45.89
30935;BME280;51033;42.648;23.292;2023-05-03T04:28:35;94138.75;;;7.73;47.24
30935;BME280;51033;42.648;23.292;2023-05-03T04:31:03;94137.84;;;7.59;48.09
30935;BME280;51033;42.648;23.292;2023-05-03T04:33:28;94157.16;;;7.41;48.42
30935;BME280;51033;42.648;23.292;2023-05-03T04:35:56;94131.53;;;7.18;48.49
30935;BME280;51033;42.648;23.292;2023-05-03T04:38:22;94140.16;;;7.47;47.97
30935;BME280;51033;42.648;23.292;2023-05-03T04:40:47;94133.47;;;7.31;48.36
30935;BME280;51033;42.648;23.292;2023-05-03T04:43:12;94171.81;;;7.34;48.60
30935;BME280;51033;42.648;23.292;2023-05-03T04:45:38;94162.78;;;7.35;48.72
30935;BME280;51033;42.648;23.292;2023-05-03T04:48:04;94174.50;;;7.52;48.41
30935;BME280;51033;42.648;23.292;2023-05-03T04:50:32;94161.13;;;7.20;48.93
30935;BME280;51033;42.648;23.292;2023-05-03T04:52:58;94175.72;;;7.17;49.04
30935;BME280;51033;42.648;23.292;2023-05-03T04:55:23;94171.53;;;7.35;49.10
30935;BME280;51033;42.648;23.292;2023-05-03T04:57:49;94177.31;;;7.37;48.98
30935;BME280;51033;42.648;23.292;2023-05-03T05:00:15;94151.06;;;7.22;49.21
30935;BME280;51033;42.648;23.292;2023-05-03T05:02:40;94169.00;;;7.25;50.00
30935;BME280;51033;42.648;23.292;2023-05-03T05:05:06;94192.06;;;7.43;50.54
30935;BME280;51033;42.648;23.292;2023-05-03T05:07:33;94194.16;;;7.22;51.94
30935;BME280;51033;42.648;23.292;2023-05-03T05:09:59;94200.53;;;6.98;53.45
30935;BME280;51033;42.648;23.292;2023-05-03T05:12:24;94195.72;;;7.00;54.10
30935;BME280;51033;42.648;23.292;2023-05-03T05:14:50;94203.44;;;6.96;53.93
30935;BME280;51033;42.648;23.292;2023-05-03T05:17:15;94202.06;;;7.04;53.93
30935;BME280;51033;42.648;23.292;2023-05-03T05:19:40;94204.41;;;7.05;53.63
30935;BME280;51033;42.648;23.292;2023-05-03T05:22:06;94199.03;;;6.86;53.93
30935;BME280;51033;42.648;23.292;2023-05-03T05:24:32;94191.25;;;6.71;54.70
30935;BME280;51033;42.648;23.292;2023-05-03T05:26:57;94220.72;;;6.89;55.54
30935;BME280;51033;42.648;23.292;2023-05-03T05:29:23;94207.81;;;6.82;55.32
30935;BME280;51033;42.648;23.292;2023-05-03T05:31:48;94216.03;;;6.80;55.19
30935;BME280;51033;42.648;23.292;2023-05-03T05:34:14;94219.81;;;6.74;55.85
30935;BME280;51033;42.648;23.292;2023-05-03T05:36:39;94212.97;;;6.68;55.42
30935;BME280;51033;42.648;23.292;2023-05-03T05:39:05;94217.09;;;6.79;55.27
30935;BME280;51033;42.648;23.292;2023-05-03T05:41:30;94224.47;;;6.82;54.94
30935;BME280;51033;42.648;23.292;2023-05-03T05:43:57;94207.66;;;6.73;54.99
30935;BME280;51033;42.648;23.292;2023-05-03T05:46:22;94202.75;;;6.85;55.54
30935;BME280;51033;42.648;23.292;2023-05-03T05:48:48;94227.28;;;6.91;55.18
30935;BME280;51033;42.648;23.292;2023-05-03T05:51:15;94206.94;;;6.63;55.28
30935;BME280;51033;42.648;23.292;2023-05-03T05:53:41;94204.06;;;6.59;56.17
30935;BME280;51033;42.648;23.292;2023-05-03T05:56:06;94212.50;;;6.61;56.66
30935;BME280;51033;42.648;23.292;2023-05-03T05:58:33;94233.59;;;6.66;56.84
30935;BME280;51033;42.648;23.292;2023-05-03T06:00:59;94230.47;;;6.64;57.22
30935;BME280;51033;42.648;23.292;2023-05-03T06:03:25;94233.50;;;6.48;57.38
30935;BME280;51033;42.648;23.292;2023-05-03T06:05:51;94230.16;;;6.66;57.33
30935;BME280;51033;42.648;23.292;2023-05-03T06:08:16;94232.81;;;6.66;56.69
30935;BME280;51033;42.648;23.292;2023-05-03T06:10:41;94209.09;;;6.56;56.45
30935;BME280;51033;42.648;23.292;2023-05-03T06:13:07;94207.31;;;6.51;55.97
30935;BME280;51033;42.648;23.292;2023-05-03T06:15:32;94226.16;;;6.73;55.65
30935;BME280;51033;42.648;23.292;2023-05-03T06:17:58;94210.41;;;6.58;56.43
30935;BME280;51033;42.648;23.292;2023-05-03T06:20:23;94219.94;;;6.59;57.44
30935;BME280;51033;42.648;23.292;2023-05-03T06:22:49;94224.09;;;6.65;58.02
30935;BME280;51033;42.648;23.292;2023-05-03T06:25:15;94211.13;;;6.69;58.58
30935;BME280;51033;42.648;23.292;2023-05-03T06:27:41;94222.63;;;6.83;57.89
30935;BME280;51033;42.648;23.292;2023-05-03T06:30:07;94198.41;;;6.71;58.29
30935;BME280;51033;42.648;23.292;2023-05-03T06:32:32;94195.97;;;7.03;57.91
30935;BME280;51033;42.648;23.292;2023-05-03T06:34:58;94197.16;;;6.92;57.24
30935;BME280;51033;42.648;23.292;2023-05-03T06:37:26;94178.09;;;6.66;57.94
30935;BME280;51033;42.648;23.292;2023-05-03T06:39:51;94194.28;;;6.89;57.84
30935;BME280;51033;42.648;23.292;2023-05-03T06:42:17;94182.19;;;7.06;58.28
30935;BME280;51033;42.648;23.292;2023-05-03T06:44:42;94166.97;;;7.17;58.54
30935;BME280;51033;42.648;23.292;2023-05-03T06:47:08;94168.91;;;7.11;58.94
30935;BME280;51033;42.648;23.292;2023-05-03T06:49:33;94174.75;;;7.08;58.34
30935;BME280;51033;42.648;23.292;2023-05-03T06:51:59;94178.31;;;7.22;58.40
30935;BME280;51033;42.648;23.292;2023-05-03T06:54:24;94177.38;;;7.32;57.77
30935;BME280;51033;42.648;23.292;2023-05-03T06:56:49;94176.38;;;7.28;57.56
30935;BME280;51033;42.648;23.292;2023-05-03T06:59:15;94186.34;;;7.36;57.08
30935;BME280;51033;42.648;23.292;2023-05-03T07:01:40;94162.13;;;7.24;57.08
30935;BME280;51033;42.648;23.292;2023-05-03T07:04:06;94168.00;;;7.21;57.07
30935;BME280;51033;42.648;23.292;2023-05-03T07:06:31;94152.28;;;7.06;56.89
30935;BME280;51033;42.648;23.292;2023-05-03T07:08:57;94137.75;;;6.84;57.19
30935;BME280;51033;42.648;23.292;2023-05-03T07:11:22;94193.44;;;7.17;57.03
30935;BME280;51033;42.648;23.292;2023-05-03T07:13:54;94192.06;;;7.19;57.31
30935;BME280;51033;42.648;23.292;2023-05-03T07:16:20;94201.75;;;7.29;57.51
30935;BME280;51033;42.648;23.292;2023-05-03T07:18:46;94178.78;;;7.48;56.97
30935;BME280;51033;42.648;23.292;2023-05-03T07:21:12;94192.78;;;7.49;56.23
30935;BME280;51033;42.648;23.292;2023-05-03T07:23:38;94180.03;;;7.32;56.64
30935;BME280;51033;42.648;23.292;2023-05-03T07:26:04;94164.41;;;7.12;57.15
30935;BME280;51033;42.648;23.292;2023-05-03T07:28:30;94197.59;;;7.47;56.82
30935;BME280;51033;42.648;23.292;2023-05-03T07:30:56;94203.78;;;7.37;56.90
30935;BME280;51033;42.648;23.292;2023-05-03T07:33:22;94190.19;;;7.67;56.73
30935;BME280;51033;42.648;23.292;2023-05-03T07:35:47;94200.66;;;7.96;56.00
30935;BME280;51033;42.648;23.292;2023-05-03T07:38:13;94190.28;;;8.00;55.41
30935;BME280;51033;42.648;23.292;2023-05-03T07:40:40;94178.72;;;8.09;55.53
30935;BME280;51033;42.648;23.292;2023-05-03T07:43:06;94192.41;;;7.98;56.45
30935;BME280;51033;42.648;23.292;2023-05-03T07:45:32;94201.94;;;7.99;56.58
30935;BME280;51033;42.648;23.292;2023-05-03T07:47:58;94206.09;;;7.86;56.39
30935;BME280;51033;42.648;23.292;2023-05-03T07:50:23;94188.97;;;8.16;56.97
30935;BME280;51033;42.648;23.292;2023-05-03T07:52:49;94213.84;;;8.52;55.23
30935;BME280;51033;42.648;23.292;2023-05-03T07:55:18;94226.91;;;8.30;55.70
30935;BME280;51033;42.648;23.292;2023-05-03T07:57:44;94213.53;;;8.22;56.31
30935;BME280;51033;42.648;23.292;2023-05-03T08:00:11;94226.34;;;7.96;57.35
30935;BME280;51033;42.648;23.292;2023-05-03T08:02:37;94230.72;;;8.24;56.82
30935;BME280;51033;42.648;23.292;2023-05-03T08:05:03;94234.56;;;8.32;57.46
30935;BME280;51033;42.648;23.292;2023-05-03T08:07:31;94229.84;;;8.29;57.53
30935;BME280;51033;42.648;23.292;2023-05-03T08:09:57;94215.31;;;7.89;58.24
30935;BME280;51033;42.648;23.292;2023-05-03T08:12:25;94213.03;;;8.01;58.52
30935;BME280;51033;42.648;23.292;2023-05-03T08:14:52;94231.66;;;7.96;58.75
30935;BME280;51033;42.648;23.292;2023-05-03T08:17:18;94225.84;;;7.94;58.99
30935;BME280;51033;42.648;23.292;2023-05-03T08:19:43;94217.66;;;8.28;58.90
30935;BME280;51033;42.648;23.292;2023-05-03T08:22:09;94210.69;;;8.50;58.06
30935;BME280;51033;42.648;23.292;2023-05-03T08:24:37;94226.78;;;8.86;56.71
30935;BME280;51033;42.648;23.292;2023-05-03T08:27:02;94217.88;;;8.96;56.93
30935;BME280;51033;42.648;23.292;2023-05-03T08:29:28;94219.53;;;8.92;56.43
30935;BME280;51033;42.648;23.292;2023-05-03T08:31:54;94235.88;;;8.99;57.49
30935;BME280;51033;42.648;23.292;2023-05-03T08:34:19;94205.88;;;8.85;56.50
30935;BME280;51033;42.648;23.292;2023-05-03T08:36:44;94207.97;;;9.15;55.69
30935;BME280;51033;42.648;23.292;2023-05-03T08:39:10;94223.44;;;9.13;56.28
30935;BME280;51033;42.648;23.292;2023-05-03T08:41:35;94223.63;;;9.44;56.33
30935;BME280;51033;42.648;23.292;2023-05-03T08:44:01;94229.63;;;9.77;55.06
30935;BME280;51033;42.648;23.292;2023-05-03T08:46:30;94239.34;;;9.54;54.87
30935;BME280;51033;42.648;23.292;2023-05-03T08:48:56;94227.34;;;9.70;55.15
30935;BME280;51033;42.648;23.292;2023-05-03T08:51:24;94209.84;;;9.56;54.71
30935;BME280;51033;42.648;23.292;2023-05-03T08:53:49;94212.81;;;9.40;55.24
30935;BME280;51033;42.648;23.292;2023-05-03T08:56:28;94236.69;;;9.54;55.90
30935;BME280;51033;42.648;23.292;2023-05-03T08:58:56;94227.38;;;9.57;54.53
30935;BME280;51033;42.648;23.292;2023-05-03T09:01:28;94239.38;;;9.68;55.40
30935;BME280;51033;42.648;23.292;2023-05-03T09:03:54;94258.63;;;9.87;55.10
30935;BME280;51033;42.648;23.292;2023-05-03T09:06:23;94252.81;;;9.85;54.80
30935;BME280;51033;42.648;23.292;2023-05-03T09:08:53;94240.06;;;10.09;53.97
30935;BME280;51033;42.648;23.292;2023-05-03T09:11:20;94235.38;;;10.06;54.59
30935;BME280;51033;42.648;23.292;2023-05-03T09:13:45;94226.50;;;10.11;54.42
30935;BME280;51033;42.648;23.292;2023-05-03T09:16:25;94231.94;;;10.42;54.26
30935;BME280;51033;42.648;23.292;2023-05-03T09:19:02;94218.25;;;10.35;53.03
30935;BME280;51033;42.648;23.292;2023-05-03T09:21:29;94221.66;;;10.71;53.88
30935;BME280;51033;42.648;23.292;2023-05-03T09:23:56;94222.63;;;10.75;53.28
30935;BME280;51033;42.648;23.292;2023-05-03T09:26:32;94222.22;;;10.59;53.02
30935;BME280;51033;42.648;23.292;2023-05-03T09:28:59;94190.88;;;10.56;53.12
30935;BME280;51033;42.648;23.292;2023-05-03T09:31:30;94211.88;;;10.58;53.01
30935;BME280;51033;42.648;23.292;2023-05-03T09:33:56;94211.75;;;10.85;53.81
30935;BME280;51033;42.648;23.292;2023-05-03T09:36:22;94197.56;;;10.98;53.45
30935;BME280;51033;42.648;23.292;2023-05-03T09:38:48;94195.19;;;11.28;52.38
30935;BME280;51033;42.648;23.292;2023-05-03T09:41:14;94187.59;;;11.12;52.94
30935;BME280;51033;42.648;23.292;2023-05-03T09:43:50;94176.06;;;11.26;52.33
30935;BME280;51033;42.648;23.292;2023-05-03T09:46:17;94175.75;;;11.67;51.98
30935;BME280;51033;42.648;23.292;2023-05-03T09:48:42;94180.50;;;11.87;51.03
30935;BME280;51033;42.648;23.292;2023-05-03T09:51:09;94192.81;;;11.57;50.97
30935;BME280;51033;42.648;23.292;2023-05-03T09:53:36;94172.69;;;11.42;51.12
30935;BME280;51033;42.648;23.292;2023-05-03T09:56:06;94173.88;;;11.76;51.67
30935;BME280;51033;42.648;23.292;2023-05-03T09:58:41;94161.78;;;11.61;51.37
30935;BME280;51033;42.648;23.292;2023-05-03T10:01:08;94157.53;;;11.60;51.44
30935;BME280;51033;42.648;23.292;2023-05-03T10:03:47;94166.97;;;11.75;51.34
30935;BME280;51033;42.648;23.292;2023-05-03T10:06:30;94172.72;;;11.51;51.00
30935;BME280;51033;42.648;23.292;2023-05-03T10:09:04;94178.47;;;11.44;51.58
30935;BME280;51033;42.648;23.292;2023-05-03T10:11:33;94158.69;;;11.76;50.97
30935;BME280;51033;42.648;23.292;2023-05-03T10:13:59;94161.34;;;11.93;50.03
30935;BME280;51033;42.648;23.292;2023-05-03T10:16:30;94165.28;;;12.04;50.86
30935;BME280;51033;42.648;23.292;2023-05-03T10:19:09;94148.03;;;12.28;51.75
30935;BME280;51033;42.648;23.292;2023-05-03T10:22:05;94149.75;;;12.15;50.67
30935;BME280;51033;42.648;23.292;2023-05-03T10:24:33;94145.66;;;12.18;50.38
30935;BME280;51033;42.648;23.292;2023-05-03T10:26:59;94136.28;;;12.20;50.81
30935;BME280;51033;42.648;23.292;2023-05-03T10:31:59;94129.22;;;12.16;50.06
30935;BME280;51033;42.648;23.292;2023-05-03T10:34:33;94123.56;;;12.26;50.70
30935;BME280;51033;42.648;23.292;2023-05-03T10:37:07;94128.25;;;12.46;51.08
30935;BME280;51033;42.648;23.292;2023-05-03T10:39:32;94126.16;;;12.77;49.72
30935;BME280;51033;42.648;23.292;2023-05-03T10:42:03;94124.78;;;12.63;49.79
30935;BME280;51033;42.648;23.292;2023-05-03T10:47:16;94107.63;;;12.72;49.97
30935;BME280;51033;42.648;23.292;2023-05-03T10:49:42;94128.81;;;12.77;49.70
30935;BME280;51033;42.648;23.292;2023-05-03T10:55:19;94107.38;;;12.65;49.72
30935;BME280;51033;42.648;23.292;2023-05-03T10:57:45;94135.59;;;12.49;50.51
30935;BME280;51033;42.648;23.292;2023-05-03T11:00:21;94135.13;;;12.47;50.07
30935;BME280;51033;42.648;23.292;2023-05-03T11:05:30;94115.06;;;13.05;49.00
30935;BME280;51033;42.648;23.292;2023-05-03T11:08:11;94119.28;;;13.06;47.50
30935;BME280;51033;42.648;23.292;2023-05-03T11:10:37;94115.06;;;13.05;48.20
30935;BME280;51033;42.648;23.292;2023-05-03T11:13:03;94113.19;;;12.97;48.03
30935;BME280;51033;42.648;23.292;2023-05-03T11:15:29;94112.59;;;12.91;48.41
30935;BME280;51033;42.648;23.292;2023-05-03T11:17:55;94109.22;;;12.73;48.57
30935;BME280;51033;42.648;23.292;2023-05-03T11:20:21;94087.28;;;12.59;49.33
30935;BME280;51033;42.648;23.292;2023-05-03T11:22:46;94095.72;;;12.53;49.52
30935;BME280;51033;42.648;23.292;2023-05-03T11:25:12;94090.88;;;12.63;49.36
30935;BME280;51033;42.648;23.292;2023-05-03T11:27:40;94078.63;;;12.71;49.39
30935;BME280;51033;42.648;23.292;2023-05-03T11:30:08;94053.03;;;12.53;49.67
30935;BME280;51033;42.648;23.292;2023-05-03T11:32:35;94103.06;;;12.81;49.38
30935;BME280;51033;42.648;23.292;2023-05-03T11:35:01;94079.72;;;12.53;49.71
30935;BME280;51033;42.648;23.292;2023-05-03T11:37:33;94099.31;;;12.57;49.87
30935;BME280;51033;42.648;23.292;2023-05-03T11:39:58;94092.09;;;12.74;50.23
30935;BME280;51033;42.648;23.292;2023-05-03T11:42:24;94084.75;;;13.01;50.12
30935;BME280;51033;42.648;23.292;2023-05-03T11:44:53;94074.97;;;12.84;49.60
30935;BME280;51033;42.648;23.292;2023-05-03T11:47:20;94076.19;;;13.24;49.08
30935;BME280;51033;42.648;23.292;2023-05-03T11:49:55;94060.94;;;13.25;49.16
30935;BME280;51033;42.648;23.292;2023-05-03T11:52:23;94072.38;;;13.25;48.75
30935;BME280;51033;42.648;23.292;2023-05-03T11:54:53;94052.34;;;13.11;48.81
30935;BME280;51033;42.648;23.292;2023-05-03T11:57:19;94029.81;;;13.00;49.75
30935;BME280;51033;42.648;23.292;2023-05-03T11:59:45;94043.25;;;13.12;49.25
30935;BME280;51033;42.648;23.292;2023-05-03T12:02:13;94052.94;;;13.25;49.58
30935;BME280;51033;42.648;23.292;2023-05-03T12:04:40;94053.53;;;13.51;48.99
30935;BME280;51033;42.648;23.292;2023-05-03T12:07:07;94046.66;;;13.71;48.79
30935;BME280;51033;42.648;23.292;2023-05-03T12:09:33;94059.97;;;13.59;49.46
30935;BME280;51033;42.648;23.292;2023-05-03T12:12:02;94042.97;;;13.55;50.20
30935;BME280;51033;42.648;23.292;2023-05-03T12:14:58;94054.28;;;13.60;49.93
30935;BME280;51033;42.648;23.292;2023-05-03T12:17:38;94054.63;;;13.50;50.58
30935;BME280;51033;42.648;23.292;2023-05-03T12:20:17;94050.28;;;13.16;50.05
30935;BME280;51033;42.648;23.292;2023-05-03T12:22:46;94037.03;;;13.28;50.07
30935;BME280;51033;42.648;23.292;2023-05-03T12:25:12;94032.66;;;12.95;49.76
30935;BME280;51033;42.648;23.292;2023-05-03T12:27:37;94037.00;;;13.08;50.42
30935;BME280;51033;42.648;23.292;2023-05-03T12:30:03;94031.84;;;13.03;50.44
30935;BME280;51033;42.648;23.292;2023-05-03T12:32:29;94055.72;;;12.99;50.54
30935;BME280;51033;42.648;23.292;2023-05-03T12:34:54;94046.25;;;12.72;50.47
30935;BME280;51033;42.648;23.292;2023-05-03T12:37:20;94043.59;;;12.72;50.82
30935;BME280;51033;42.648;23.292;2023-05-03T12:39:45;94059.81;;;12.59;51.16
30935;BME280;51033;42.648;23.292;2023-05-03T12:42:11;94051.25;;;12.19;52.11
30935;BME280;51033;42.648;23.292;2023-05-03T12:44:37;94033.84;;;12.13;51.99
30935;BME280;51033;42.648;23.292;2023-05-03T12:47:03;94053.16;;;12.10;52.47
30935;BME280;51033;42.648;23.292;2023-05-03T12:49:29;94056.59;;;12.19;52.20
30935;BME280;51033;42.648;23.292;2023-05-03T12:51:54;94057.69;;;12.26;52.24
30935;BME280;51033;42.648;23.292;2023-05-03T12:54:24;94034.88;;;12.46;52.04
30935;BME280;51033;42.648;23.292;2023-05-03T12:56:49;94043.66;;;12.46;52.58
30935;BME280;51033;42.648;23.292;2023-05-03T12:59:15;94031.84;;;11.84;53.97
30935;BME280;51033;42.648;23.292;2023-05-03T13:01:41;94045.34;;;11.87;55.51
30935;BME280;51033;42.648;23.292;2023-05-03T13:04:07;94045.66;;;11.51;57.40
30935;BME280;51033;42.648;23.292;2023-05-03T13:06:32;94021.97;;;11.24;58.19
30935;BME280;51033;42.648;23.292;2023-05-03T13:08:58;94023.16;;;11.01;60.29
30935;BME280;51033;42.648;23.292;2023-05-03T13:11:23;94037.09;;;10.98;61.08
30935;BME280;51033;42.648;23.292;2023-05-03T13:13:51;94036.72;;;10.73;61.27
30935;BME280;51033;42.648;23.292;2023-05-03T13:16:16;94026.72;;;10.17;63.44
30935;BME280;51033;42.648;23.292;2023-05-03T13:18:43;94049.28;;;10.20;64.69